Time;durP1;ratioP1;P1;durP2;ratioP2;P2;SDS_P1;SDS_P2;PMS_P1;PMS_P2;Temp;Humidity;BMP_temperature;BMP_pressure;BME280_temperature;BME280_humidity;BME280_pressure;Samples;Min_cycle;Max_cycle;Signal;HPM_P1;HPM_P2
2023/03/29 00:01:24;;;;;;;1.87;1.70;;;;;;;;;;5016497;28;20199;-32
2023/03/29 00:03:55;;;;;;;1.00;1.00;;;;;;;;;;5011032;28;20215;-32
2023/03/29 00:06:22;;;;;;;1.73;1.33;;;;;;;;;;5011328;28;20203;-34
2023/03/29 00:08:52;;;;;;;2.03;1.50;;;;;;;;;;5010204;28;20211;-32
2023/03/29 00:11:21;;;;;;;1.57;1.47;;;;;;;;;;5023828;28;20313;-32
2023/03/29 00:13:48;;;;;;;1.67;1.50;;;;;;;;;;5018333;28;20307;-32
2023/03/29 00:16:16;;;;;;;1.50;1.40;;;;;;;;;;5018523;28;20206;-39
2023/03/29 00:18:43;;;;;;;1.60;1.50;;;;;;;;;;5022355;28;20242;-33
2023/03/29 00:23:41;;;;;;;2.73;1.90;;;;;;;;;;5026818;28;20232;-40
2023/03/29 00:26:08;;;;;;;2.40;1.50;;;;;;;;;;5012780;28;20211;-39
2023/03/29 00:28:36;;;;;;;1.87;1.30;;;;;;;;;;5010288;28;20214;-40
2023/03/29 00:31:07;;;;;;;2.27;1.30;;;;;;;;;;5015111;28;20226;-41
2023/03/29 00:33:34;;;;;;;1.50;1.40;;;;;;;;;;5028225;28;20237;-42
2023/03/29 00:36:03;;;;;;;1.30;1.20;;;;;;;;;;5031832;28;20245;-37
2023/03/29 00:38:30;;;;;;;1.50;1.20;;;;;;;;;;5026379;28;20211;-41
2023/03/29 00:40:59;;;;;;;3.37;1.37;;;;;;;;;;5026413;28;20202;-38
2023/03/29 00:43:26;;;;;;;1.87;1.13;;;;;;;;;;5032218;28;20236;-39
2023/03/29 00:45:53;;;;;;;1.83;1.40;;;;;;;;;;5025572;28;20207;-39
2023/03/29 00:48:21;;;;;;;2.80;1.50;;;;;;;;;;5024476;28;20207;-39
2023/03/29 00:50:51;;;;;;;2.07;1.20;;;;;;;;;;5033370;28;20233;-36
2023/03/29 00:53:20;;;;;;;1.33;1.20;;;;;;;;;;5017142;28;20226;-39
2023/03/29 00:55:51;;;;;;;1.47;1.20;;;;;;;;;;5013124;28;20213;-42
2023/03/29 00:58:23;;;;;;;1.87;1.20;;;;;;;;;;5020493;28;20211;-43
2023/03/29 01:00:54;;;;;;;2.13;1.20;;;;;;;;;;5016958;28;20203;-40
2023/03/29 01:03:23;;;;;;;4.77;1.57;;;;;;;;;;5024798;28;20276;-37
2023/03/29 01:05:52;;;;;;;1.90;1.63;;;;;;;;;;5020230;28;20214;-41
2023/03/29 01:08:20;;;;;;;1.10;1.10;;;;;;;;;;5010028;28;20222;-35
2023/03/29 01:10:49;;;;;;;1.20;1.10;;;;;;;;;;5011950;28;20219;-37
2023/03/29 01:13:18;;;;;;;3.80;1.27;;;;;;;;;;5021921;28;20222;-42
2023/03/29 01:15:47;;;;;;;1.60;1.50;;;;;;;;;;5019951;28;20207;-40
2023/03/29 01:18:14;;;;;;;1.73;1.30;;;;;;;;;;5017990;28;20298;-37
2023/03/29 01:20:47;;;;;;;2.43;1.30;;;;;;;;;;5010874;28;20195;-38
2023/03/29 01:23:25;;;;;;;2.53;1.20;;;;;;;;;;5013671;28;20269;-39
2023/03/29 01:25:57;;;;;;;2.07;1.20;;;;;;;;;;5019634;28;20206;-39
2023/03/29 01:28:30;;;;;;;2.17;1.43;;;;;;;;;;5010886;28;20544;-34
2023/03/29 01:31:00;;;;;;;2.60;1.50;;;;;;;;;;5020772;28;20316;-35
2023/03/29 01:33:31;;;;;;;1.43;1.33;;;;;;;;;;5029730;28;20227;-41
2023/03/29 01:36:02;;;;;;;1.40;1.30;;;;;;;;;;5032478;28;20206;-40
2023/03/29 01:38:31;;;;;;;2.23;1.53;;;;;;;;;;5029807;28;20198;-34
2023/03/29 01:40:58;;;;;;;1.70;1.30;;;;;;;;;;5017636;28;20213;-37
2023/03/29 01:43:31;;;;;;;2.03;1.60;;;;;;;;;;5015604;28;20223;-40
2023/03/29 01:46:01;;;;;;;1.80;1.70;;;;;;;;;;5020349;28;20207;-44
2023/03/29 01:48:31;;;;;;;1.70;1.60;;;;;;;;;;5017464;28;20214;-39
2023/03/29 01:51:03;;;;;;;3.03;1.50;;;;;;;;;;5025689;28;20226;-41
2023/03/29 01:53:31;;;;;;;2.53;1.67;;;;;;;;;;5032000;28;20237;-33
2023/03/29 01:56:03;;;;;;;1.43;1.33;;;;;;;;;;5019607;28;20207;-37
2023/03/29 01:58:33;;;;;;;1.70;1.60;;;;;;;;;;5022078;28;20239;-40
2023/03/29 02:01:04;;;;;;;1.57;1.47;;;;;;;;;;5021609;28;20207;-41
2023/03/29 02:03:32;;;;;;;1.40;1.30;;;;;;;;;;5021195;28;20280;-39
2023/03/29 02:06:00;;;;;;;1.50;1.40;;;;;;;;;;5032685;28;20207;-37
2023/03/29 02:08:28;;;;;;;1.67;1.30;;;;;;;;;;5019759;28;20203;-37
2023/03/29 02:10:55;;;;;;;1.50;1.40;;;;;;;;;;5014199;28;20731;-39
2023/03/29 02:13:22;;;;;;;1.57;1.47;;;;;;;;;;5028368;28;20314;-36
2023/03/29 02:15:51;;;;;;;1.40;1.30;;;;;;;;;;5025564;28;20532;-43
2023/03/29 02:18:19;;;;;;;2.07;1.33;;;;;;;;;;5023714;28;20221;-43
2023/03/29 02:20:47;;;;;;;1.47;1.37;;;;;;;;;;5024052;28;20264;-37
2023/03/29 02:23:16;;;;;;;1.40;1.30;;;;;;;;;;5027392;28;20740;-43
2023/03/29 02:25:45;;;;;;;1.37;1.27;;;;;;;;;;5020780;28;20210;-38
2023/03/29 02:28:12;;;;;;;1.53;1.43;;;;;;;;;;5030037;28;20225;-35
2023/03/29 02:30:42;;;;;;;1.57;1.47;;;;;;;;;;5021667;28;20260;-41
2023/03/29 02:33:14;;;;;;;2.07;1.90;;;;;;;;;;5011960;28;20227;-36
2023/03/29 02:35:47;;;;;;;2.20;1.67;;;;;;;;;;5034491;28;20221;-40
2023/03/29 02:38:15;;;;;;;2.77;1.67;;;;;;;;;;5029236;28;20199;-39
2023/03/29 02:40:43;;;;;;;2.07;1.87;;;;;;;;;;5029421;28;20209;-39
2023/03/29 02:43:11;;;;;;;1.50;1.40;;;;;;;;;;5030238;28;20219;-41
2023/03/29 02:45:39;;;;;;;1.90;1.80;;;;;;;;;;5024862;28;20218;-42
2023/03/29 02:48:09;;;;;;;2.07;1.67;;;;;;;;;;5021248;28;20217;-40
2023/03/29 02:50:39;;;;;;;1.53;1.43;;;;;;;;;;5024527;28;20236;-40
2023/03/29 02:53:10;;;;;;;1.70;1.60;;;;;;;;;;5034885;28;20227;-38
2023/03/29 02:55:39;;;;;;;1.60;1.50;;;;;;;;;;5021239;28;20211;-36
2023/03/29 02:58:07;;;;;;;2.03;1.80;;;;;;;;;;5024314;28;20215;-38
2023/03/29 03:00:35;;;;;;;4.03;1.50;;;;;;;;;;5020624;28;20203;-40
2023/03/29 03:03:03;;;;;;;1.93;1.47;;;;;;;;;;5023636;28;20263;-36
2023/03/29 03:05:30;;;;;;;1.60;1.50;;;;;;;;;;5015882;28;20203;-39
2023/03/29 03:07:58;;;;;;;1.50;1.40;;;;;;;;;;5020237;28;20230;-37
2023/03/29 03:10:26;;;;;;;2.47;1.80;;;;;;;;;;5016167;28;20208;-41
2023/03/29 03:12:53;;;;;;;1.97;1.80;;;;;;;;;;5027502;28;20227;-42
2023/03/29 03:15:21;;;;;;;2.13;1.73;;;;;;;;;;5029903;28;20217;-36
2023/03/29 03:17:48;;;;;;;1.90;1.80;;;;;;;;;;5030692;28;20207;-38
2023/03/29 03:20:15;;;;;;;2.03;1.83;;;;;;;;;;5023970;28;20196;-37
2023/03/29 03:22:44;;;;;;;1.93;1.83;;;;;;;;;;5014020;28;20245;-41
2023/03/29 03:25:12;;;;;;;4.83;2.30;;;;;;;;;;5017653;28;20302;-38
2023/03/29 03:27:40;;;;;;;2.60;1.90;;;;;;;;;;5022779;28;20214;-40
2023/03/29 03:30:08;;;;;;;1.97;1.70;;;;;;;;;;5016927;28;20199;-38
2023/03/29 03:32:36;;;;;;;1.50;1.40;;;;;;;;;;5016323;28;20239;-35
2023/03/29 03:35:04;;;;;;;2.37;1.93;;;;;;;;;;5034576;28;20195;-34
2023/03/29 03:37:32;;;;;;;2.07;1.53;;;;;;;;;;5031044;28;20238;-39
2023/03/29 03:39:59;;;;;;;2.50;2.00;;;;;;;;;;5025132;28;20214;-42
2023/03/29 03:42:29;;;;;;;2.30;1.80;;;;;;;;;;5033978;28;20206;-41
2023/03/29 03:44:56;;;;;;;1.57;1.40;;;;;;;;;;5027852;28;20211;-38
2023/03/29 03:47:24;;;;;;;1.43;1.33;;;;;;;;;;5033129;28;20237;-41
2023/03/29 03:49:51;;;;;;;2.67;1.97;;;;;;;;;;5033384;28;20207;-41
2023/03/29 03:52:35;;;;;;;1.53;1.43;;;;;;;;;;5033848;28;20222;-42
2023/03/29 03:55:02;;;;;;;6.00;2.10;;;;;;;;;;5030066;28;20253;-36
2023/03/29 03:57:32;;;;;;;1.93;1.73;;;;;;;;;;5023097;28;20203;-39
2023/03/29 03:59:59;;;;;;;4.37;1.80;;;;;;;;;;5016547;28;20211;-37
2023/03/29 04:02:26;;;;;;;2.73;1.93;;;;;;;;;;5031458;28;20229;-39
2023/03/29 04:04:54;;;;;;;2.13;1.70;;;;;;;;;;5026644;28;20297;-40
2023/03/29 04:07:24;;;;;;;2.53;2.10;;;;;;;;;;5034027;28;20209;-39
2023/03/29 04:09:51;;;;;;;2.00;1.60;;;;;;;;;;5027674;28;20268;-37
2023/03/29 04:12:18;;;;;;;1.97;1.50;;;;;;;;;;5025705;28;20226;-37
2023/03/29 04:14:47;;;;;;;2.13;1.93;;;;;;;;;;5023716;28;20211;-36
2023/03/29 04:17:14;;;;;;;2.37;1.50;;;;;;;;;;5026559;28;20216;-40
2023/03/29 04:19:41;;;;;;;1.97;1.43;;;;;;;;;;5021985;28;20213;-42
2023/03/29 04:22:08;;;;;;;1.87;1.60;;;;;;;;;;5010501;28;20716;-41
2023/03/29 04:24:36;;;;;;;2.77;2.10;;;;;;;;;;5017139;28;20206;-41
2023/03/29 04:27:03;;;;;;;5.37;2.20;;;;;;;;;;5018210;28;20211;-41
2023/03/29 04:29:30;;;;;;;4.50;1.73;;;;;;;;;;5012176;28;20218;-38
2023/03/29 04:31:59;;;;;;;3.17;1.87;;;;;;;;;;5022603;28;20223;-39
2023/03/29 04:34:26;;;;;;;3.30;2.07;;;;;;;;;;5013436;28;20224;-38
2023/03/29 04:36:53;;;;;;;2.23;1.67;;;;;;;;;;5013405;28;20214;-37
2023/03/29 04:39:20;;;;;;;1.90;1.80;;;;;;;;;;5011874;28;20207;-36
2023/03/29 04:41:47;;;;;;;2.30;1.87;;;;;;;;;;5023877;28;20198;-41
2023/03/29 04:44:15;;;;;;;3.43;1.80;;;;;;;;;;5024727;28;20314;-38
2023/03/29 04:46:42;;;;;;;1.87;1.77;;;;;;;;;;5018324;28;20214;-38
2023/03/29 04:49:10;;;;;;;1.63;1.53;;;;;;;;;;5027442;28;20213;-37
2023/03/29 04:51:37;;;;;;;2.60;1.80;;;;;;;;;;5018184;28;20234;-38
2023/03/29 04:54:05;;;;;;;2.10;1.93;;;;;;;;;;5012955;28;20298;-36
2023/03/29 04:56:32;;;;;;;2.67;1.70;;;;;;;;;;5028645;28;20214;-40
2023/03/29 04:58:59;;;;;;;1.73;1.63;;;;;;;;;;5012771;28;20203;-38
2023/03/29 05:01:26;;;;;;;2.30;2.10;;;;;;;;;;5022414;28;20202;-36
2023/03/29 05:03:53;;;;;;;3.60;1.90;;;;;;;;;;5020922;28;20287;-35
2023/03/29 05:06:22;;;;;;;2.13;1.63;;;;;;;;;;5013448;28;20207;-44
2023/03/29 05:08:50;;;;;;;2.73;2.27;;;;;;;;;;5011991;28;20211;-40
2023/03/29 05:11:18;;;;;;;2.43;2.23;;;;;;;;;;5023948;28;20222;-40
2023/03/29 05:13:45;;;;;;;5.37;1.80;;;;;;;;;;5024596;28;20230;-40
2023/03/29 05:16:12;;;;;;;2.77;2.07;;;;;;;;;;5016532;28;20211;-45
2023/03/29 05:18:39;;;;;;;2.40;1.90;;;;;;;;;;5022783;28;20227;-36
2023/03/29 05:21:08;;;;;;;2.17;1.60;;;;;;;;;;5022762;28;20207;-37
2023/03/29 05:23:37;;;;;;;1.80;1.70;;;;;;;;;;5011378;28;20231;-41
2023/03/29 05:26:06;;;;;;;2.20;1.80;;;;;;;;;;5021025;28;20250;-36
2023/03/29 05:28:34;;;;;;;2.10;1.90;;;;;;;;;;5030041;28;20213;-36
2023/03/29 05:31:02;;;;;;;2.37;2.17;;;;;;;;;;5022544;28;20210;-40
2023/03/29 05:33:30;;;;;;;2.70;2.13;;;;;;;;;;5013751;28;20230;-44
2023/03/29 05:36:00;;;;;;;2.17;1.97;;;;;;;;;;5012524;28;20423;-42
2023/03/29 05:38:28;;;;;;;4.13;2.20;;;;;;;;;;5012922;28;20217;-43
2023/03/29 05:40:57;;;;;;;1.77;1.63;;;;;;;;;;5011586;28;20207;-40
2023/03/29 05:43:24;;;;;;;2.03;1.83;;;;;;;;;;5020079;28;20238;-41
2023/03/29 05:45:53;;;;;;;2.20;2.00;;;;;;;;;;5022551;28;20237;-39
2023/03/29 05:48:21;;;;;;;2.50;1.60;;;;;;;;;;5024047;28;20257;-38
2023/03/29 05:50:48;;;;;;;2.50;2.30;;;;;;;;;;5012778;28;20207;-40
2023/03/29 05:53:15;;;;;;;2.70;2.27;;;;;;;;;;5012510;28;20257;-40
2023/03/29 05:55:43;;;;;;;2.23;2.00;;;;;;;;;;5018613;28;20261;-36
2023/03/29 05:58:12;;;;;;;2.43;2.10;;;;;;;;;;5020651;28;20213;-39
2023/03/29 06:00:39;;;;;;;2.77;2.37;;;;;;;;;;5016731;28;20301;-38
2023/03/29 06:03:07;;;;;;;3.13;1.93;;;;;;;;;;5024305;28;20237;-41
2023/03/29 06:05:35;;;;;;;3.77;1.97;;;;;;;;;;5032443;28;20293;-33
2023/03/29 06:08:03;;;;;;;2.90;1.90;;;;;;;;;;5032761;28;20234;-37
2023/03/29 06:10:30;;;;;;;2.77;2.50;;;;;;;;;;5021536;28;20212;-42
2023/03/29 06:12:57;;;;;;;3.50;2.27;;;;;;;;;;5021176;28;20227;-40
2023/03/29 06:15:25;;;;;;;3.00;2.70;;;;;;;;;;5016465;28;20203;-44
2023/03/29 06:17:53;;;;;;;3.67;3.23;;;;;;;;;;5027553;28;20213;-39
2023/03/29 06:20:20;;;;;;;5.37;3.20;;;;;;;;;;5288764;23;20229;-32
2023/03/29 06:22:47;;;;;;;7.40;4.20;;;;;;;;;;5058956;28;20217;-30
2023/03/29 06:25:16;;;;;;;6.03;2.80;;;;;;;;;;5061406;28;20209;-30
2023/03/29 06:27:45;;;;;;;4.67;3.30;;;;;;;;;;5068414;28;20209;-36
2023/03/29 06:30:13;;;;;;;4.47;2.90;;;;;;;;;;5068695;28;20218;-32
2023/03/29 06:32:41;;;;;;;2.50;2.30;;;;;;;;;;5073583;28;20320;-34
2023/03/29 06:35:09;;;;;;;4.93;2.60;;;;;;;;;;5075225;28;20221;-32
2023/03/29 06:37:39;;;;;;;3.37;2.77;;;;;;;;;;5071911;28;20198;-36
2023/03/29 06:40:08;;;;;;;6.87;3.10;;;;;;;;;;5064031;28;20209;-34
2023/03/29 06:42:36;;;;;;;4.80;3.20;;;;;;;;;;5071661;28;20217;-36
2023/03/29 06:45:03;;;;;;;4.60;2.97;;;;;;;;;;5067731;28;20263;-30
2023/03/29 06:47:30;;;;;;;3.40;2.33;;;;;;;;;;5070561;28;20259;-32
2023/03/29 06:49:59;;;;;;;7.07;3.37;;;;;;;;;;5074392;28;20834;-31
2023/03/29 06:52:26;;;;;;;4.77;2.70;;;;;;;;;;5074570;28;20223;-32
2023/03/29 06:54:54;;;;;;;4.37;3.10;;;;;;;;;;5068030;28;20209;-33
2023/03/29 06:57:21;;;;;;;5.47;3.70;;;;;;;;;;5074171;28;20209;-32
2023/03/29 06:59:48;;;;;;;3.27;2.97;;;;;;;;;;5067147;28;20213;-31
2023/03/29 07:02:16;;;;;;;4.53;3.43;;;;;;;;;;5070595;28;20251;-31
2023/03/29 07:04:43;;;;;;;4.53;3.10;;;;;;;;;;5063350;28;20237;-39
2023/03/29 07:07:18;;;;;;;3.73;3.17;;;;;;;;;;5061205;28;20204;-32
2023/03/29 07:09:52;;;;;;;3.97;3.30;;;;;;;;;;5066879;28;20232;-34
2023/03/29 07:12:20;;;;;;;3.90;2.90;;;;;;;;;;5065961;28;20208;-34
2023/03/29 07:14:47;;;;;;;4.23;3.47;;;;;;;;;;5058590;28;20232;-34
2023/03/29 07:17:15;;;;;;;4.83;3.00;;;;;;;;;;5063284;28;20213;-35
2023/03/29 07:19:43;;;;;;;5.63;3.40;;;;;;;;;;5066273;28;20202;-37
2023/03/29 07:22:12;;;;;;;4.27;3.20;;;;;;;;;;5067058;28;20205;-33
2023/03/29 07:24:40;;;;;;;4.17;3.30;;;;;;;;;;5060946;28;20198;-37
2023/03/29 07:27:07;;;;;;;4.43;3.17;;;;;;;;;;5066534;28;20262;-37
2023/03/29 07:29:34;;;;;;;6.93;3.67;;;;;;;;;;5060482;28;20218;-37
2023/03/29 07:32:02;;;;;;;5.53;3.23;;;;;;;;;;5063651;28;20197;-32
2023/03/29 07:34:31;;;;;;;5.30;3.53;;;;;;;;;;5066175;28;20260;-32
2023/03/29 07:36:58;;;;;;;3.93;3.07;;;;;;;;;;5067512;28;20232;-34
2023/03/29 07:39:27;;;;;;;5.20;3.00;;;;;;;;;;5057781;28;20193;-34
2023/03/29 07:41:57;;;;;;;3.93;3.00;;;;;;;;;;5063873;28;20278;-32
2023/03/29 07:44:25;;;;;;;4.70;3.07;;;;;;;;;;5063344;28;20217;-34
2023/03/29 07:46:53;;;;;;;5.10;2.83;;;;;;;;;;5062863;28;20224;-32
2023/03/29 07:49:20;;;;;;;4.53;2.67;;;;;;;;;;5065583;28;20313;-37
2023/03/29 07:51:48;;;;;;;6.50;2.63;;;;;;;;;;5066407;28;20202;-36
2023/03/29 07:54:15;;;;;;;3.50;2.63;;;;;;;;;;5057306;28;20229;-37
2023/03/29 07:56:43;;;;;;;7.10;3.00;;;;;;;;;;5065453;28;20271;-32
2023/03/29 07:59:10;;;;;;;3.83;3.00;;;;;;;;;;5065445;28;20204;-33
2023/03/29 08:01:39;;;;;;;3.70;2.93;;;;;;;;;;5062744;28;20202;-33
2023/03/29 08:04:06;;;;;;;4.03;2.90;;;;;;;;;;5066286;28;20316;-36
2023/03/29 08:06:34;;;;;;;6.30;2.90;;;;;;;;;;5066243;28;20197;-37
2023/03/29 08:09:01;;;;;;;3.53;3.03;;;;;;;;;;5063608;28;20202;-33
2023/03/29 08:11:28;;;;;;;5.80;2.80;;;;;;;;;;5062261;28;20211;-36
2023/03/29 08:13:58;;;;;;;5.70;3.50;;;;;;;;;;5063613;28;20268;-31
2023/03/29 08:16:25;;;;;;;3.47;3.17;;;;;;;;;;5060670;28;20288;-36
2023/03/29 08:18:52;;;;;;;3.00;2.53;;;;;;;;;;5066175;28;20662;-31
2023/03/29 08:21:20;;;;;;;4.00;2.70;;;;;;;;;;5068612;28;20235;-32
2023/03/29 08:23:47;;;;;;;6.37;5.77;;;;;;;;;;5066220;28;20225;-32
2023/03/29 08:26:14;;;;;;;4.43;3.17;;;;;;;;;;5060323;28;20212;-31
2023/03/29 08:28:42;;;;;;;5.70;3.83;;;;;;;;;;5069917;28;20200;-35
2023/03/29 08:31:10;;;;;;;3.47;2.87;;;;;;;;;;5060464;28;20208;-30
2023/03/29 08:33:37;;;;;;;6.87;3.07;;;;;;;;;;5063304;28;20233;-35
2023/03/29 08:36:05;;;;;;;4.17;2.80;;;;;;;;;;5057277;28;20205;-38
2023/03/29 08:38:32;;;;;;;3.53;2.93;;;;;;;;;;5065344;28;20402;-30
2023/03/29 08:40:59;;;;;;;7.80;3.07;;;;;;;;;;5066106;28;20209;-35
2023/03/29 08:43:44;;;;;;;3.80;2.93;;;;;;;;;;5057626;28;20229;-36
2023/03/29 08:46:19;;;;;;;2.70;2.50;;;;;;;;;;5058860;28;20201;-32
2023/03/29 08:48:48;;;;;;;3.70;3.10;;;;;;;;;;5064588;28;20213;-33
2023/03/29 08:51:18;;;;;;;3.67;3.03;;;;;;;;;;5065906;28;20227;-37
2023/03/29 08:53:47;;;;;;;3.67;2.73;;;;;;;;;;5054629;28;20240;-32
2023/03/29 08:56:16;;;;;;;3.90;2.93;;;;;;;;;;5049960;28;20212;-33
2023/03/29 08:58:44;;;;;;;7.60;3.23;;;;;;;;;;5055180;28;20220;-32
2023/03/29 09:01:11;;;;;;;2.73;2.33;;;;;;;;;;5059444;28;20249;-31
2023/03/29 09:03:43;;;;;;;4.43;3.00;;;;;;;;;;5064284;28;20213;-31
2023/03/29 09:06:12;;;;;;;4.43;3.07;;;;;;;;;;5064613;28;20205;-33
2023/03/29 09:08:40;;;;;;;3.70;3.07;;;;;;;;;;5061215;28;20205;-42
2023/03/29 09:11:14;;;;;;;6.53;2.90;;;;;;;;;;5064973;28;20209;-37
2023/03/29 09:13:47;;;;;;;4.17;2.97;;;;;;;;;;5064872;28;20233;-31
2023/03/29 09:16:17;;;;;;;5.03;3.70;;;;;;;;;;5059892;28;20212;-36
2023/03/29 09:18:50;;;;;;;3.10;2.53;;;;;;;;;;5063686;28;20197;-33
2023/03/29 09:21:21;;;;;;;5.57;3.00;;;;;;;;;;5065036;28;20209;-38
2023/03/29 09:24:11;;;;;;;5.60;2.53;;;;;;;;;;5057747;28;20217;-34
2023/03/29 09:26:41;;;;;;;3.43;2.53;;;;;;;;;;5063415;28;20227;-40
2023/03/29 09:29:16;;;;;;;2.40;2.20;;;;;;;;;;5065895;28;20212;-32
2023/03/29 09:31:43;;;;;;;2.23;1.70;;;;;;;;;;5055687;28;20794;-33
2023/03/29 09:34:13;;;;;;;2.47;1.30;;;;;;;;;;5064485;28;20229;-32
2023/03/29 09:36:45;;;;;;;1.57;1.43;;;;;;;;;;5064681;28;20209;-33
2023/03/29 09:39:15;;;;;;;1.90;1.47;;;;;;;;;;5055525;28;20202;-38
2023/03/29 09:41:46;;;;;;;2.70;1.03;;;;;;;;;;5068142;28;20213;-34
2023/03/29 09:44:15;;;;;;;1.33;1.20;;;;;;;;;;5070477;28;20419;-35
2023/03/29 09:46:42;;;;;;;1.10;1.00;;;;;;;;;;5071068;28;20217;-37
2023/03/29 09:49:13;;;;;;;5.80;1.33;;;;;;;;;;5073481;28;20204;-30
2023/03/29 09:51:42;;;;;;;2.07;1.20;;;;;;;;;;5070838;28;20243;-33
2023/03/29 09:54:10;;;;;;;3.70;1.33;;;;;;;;;;5067243;28;20275;-34
2023/03/29 09:56:38;;;;;;;1.37;1.27;;;;;;;;;;5059796;28;20206;-30
2023/03/29 09:59:06;;;;;;;1.37;1.23;;;;;;;;;;5073284;28;20205;-31
2023/03/29 10:01:37;;;;;;;2.17;1.30;;;;;;;;;;5062389;28;20201;-31
2023/03/29 10:04:06;;;;;;;1.60;1.33;;;;;;;;;;5072619;28;20225;-35
2023/03/29 10:06:34;;;;;;;3.47;1.10;;;;;;;;;;5073330;28;20472;-29
2023/03/29 10:09:03;;;;;;;2.03;1.00;;;;;;;;;;5068158;28;20201;-33
2023/03/29 10:11:32;;;;;;;1.43;1.00;;;;;;;;;;5065659;28;20205;-35
2023/03/29 10:14:01;;;;;;;1.47;1.13;;;;;;;;;;5072882;28;20227;-33
2023/03/29 10:16:30;;;;;;;3.57;2.40;;;;;;;;;;5067720;28;20216;-35
2023/03/29 10:18:57;;;;;;;3.97;1.47;;;;;;;;;;5072144;28;20223;-32
2023/03/29 10:21:24;;;;;;;1.53;1.43;;;;;;;;;;5072366;28;20211;-34
2023/03/29 10:23:58;;;;;;;1.20;1.10;;;;;;;;;;5073017;28;20278;-35
2023/03/29 10:26:28;;;;;;;2.80;1.13;;;;;;;;;;5062537;28;20208;-35
2023/03/29 10:28:59;;;;;;;1.87;1.60;;;;;;;;;;5071845;28;20185;-40
2023/03/29 10:31:29;;;;;;;1.43;1.33;;;;;;;;;;5060357;28;20205;-31
2023/03/29 10:33:57;;;;;;;2.40;1.30;;;;;;;;;;5068034;28;20283;-34
2023/03/29 10:36:26;;;;;;;2.37;1.20;;;;;;;;;;5068559;28;20284;-32
2023/03/29 10:38:54;;;;;;;2.90;1.33;;;;;;;;;;5058478;28;20265;-37
2023/03/29 10:41:23;;;;;;;3.47;1.60;;;;;;;;;;5066856;28;20205;-34
2023/03/29 10:43:51;;;;;;;2.37;1.13;;;;;;;;;;5053277;28;20226;-35
2023/03/29 10:46:20;;;;;;;2.57;1.60;;;;;;;;;;5062741;28;20205;-36
2023/03/29 10:48:49;;;;;;;3.63;1.33;;;;;;;;;;5071649;28;20216;-32
2023/03/29 10:51:17;;;;;;;4.27;3.67;;;;;;;;;;5071468;28;20237;-33
2023/03/29 10:53:45;;;;;;;4.37;1.60;;;;;;;;;;5071698;28;20259;-31
2023/03/29 10:56:19;;;;;;;1.97;1.17;;;;;;;;;;5061851;28;20205;-32
2023/03/29 10:58:53;;;;;;;5.50;1.50;;;;;;;;;;5071178;28;20304;-36
2023/03/29 11:01:25;;;;;;;1.47;1.30;;;;;;;;;;5065018;28;20212;-34
2023/03/29 11:04:04;;;;;;;2.90;1.17;;;;;;;;;;5064182;28;20320;-33
2023/03/29 11:06:35;;;;;;;2.27;1.20;;;;;;;;;;5072688;28;20193;-33
2023/03/29 11:09:02;;;;;;;4.63;1.40;;;;;;;;;;5062660;28;20296;-35
2023/03/29 11:11:39;;;;;;;3.07;1.53;;;;;;;;;;5062065;28;20213;-32
2023/03/29 11:14:12;;;;;;;1.43;1.23;;;;;;;;;;5071229;28;20236;-32
2023/03/29 11:16:43;;;;;;;3.50;1.30;;;;;;;;;;5062872;28;20205;-36
2023/03/29 11:19:22;;;;;;;2.20;1.17;;;;;;;;;;5071002;28;20205;-34
2023/03/29 11:21:51;;;;;;;1.67;1.33;;;;;;;;;;5071845;28;20248;-37
2023/03/29 11:24:29;;;;;;;1.20;1.10;;;;;;;;;;5066891;28;20227;-34
2023/03/29 11:27:00;;;;;;;3.50;1.30;;;;;;;;;;5064859;28;20452;-35
2023/03/29 11:29:29;;;;;;;1.40;1.23;;;;;;;;;;5069298;28;20193;-36
2023/03/29 11:32:02;;;;;;;1.40;1.30;;;;;;;;;;5066345;28;20212;-33
2023/03/29 11:34:31;;;;;;;2.60;1.47;;;;;;;;;;5071464;28;20213;-38
2023/03/29 11:37:01;;;;;;;2.00;1.30;;;;;;;;;;5072011;28;20205;-36
2023/03/29 11:39:31;;;;;;;1.97;1.10;;;;;;;;;;5060624;28;20216;-35
2023/03/29 11:42:01;;;;;;;3.43;1.37;;;;;;;;;;5071287;28;20286;-32
2023/03/29 11:44:30;;;;;;;2.97;1.17;;;;;;;;;;5068782;28;20220;-34
2023/03/29 11:47:01;;;;;;;3.37;1.37;;;;;;;;;;5068728;28;20479;-33
2023/03/29 11:49:32;;;;;;;3.43;1.53;;;;;;;;;;5070804;28;20224;-36
2023/03/29 11:52:03;;;;;;;4.07;1.20;;;;;;;;;;5070532;28;20192;-33
2023/03/29 11:54:33;;;;;;;1.47;1.10;;;;;;;;;;5063468;28;20225;-37
2023/03/29 11:57:02;;;;;;;1.60;1.20;;;;;;;;;;5071217;28;20197;-35
2023/03/29 11:59:31;;;;;;;2.60;1.20;;;;;;;;;;5068443;28;20208;-36
2023/03/29 12:02:04;;;;;;;1.87;1.23;;;;;;;;;;5065066;28;20210;-36
2023/03/29 12:04:33;;;;;;;1.97;1.10;;;;;;;;;;5070142;28;20213;-34
2023/03/29 12:07:06;;;;;;;3.30;1.50;;;;;;;;;;5069862;28;20639;-35
2023/03/29 12:09:39;;;;;;;6.83;1.37;;;;;;;;;;5065832;28;20206;-36
2023/03/29 12:12:09;;;;;;;1.83;1.10;;;;;;;;;;5066513;28;20209;-32
2023/03/29 12:14:45;;;;;;;1.30;1.07;;;;;;;;;;5068039;28;20522;-38
2023/03/29 12:17:17;;;;;;;1.60;1.50;;;;;;;;;;5065883;28;20262;-36
2023/03/29 12:19:47;;;;;;;1.40;1.10;;;;;;;;;;5070365;28;20196;-33
2023/03/29 12:22:15;;;;;;;1.10;1.00;;;;;;;;;;5069595;28;20212;-33
2023/03/29 12:24:46;;;;;;;0.90;0.90;;;;;;;;;;5066145;28;20620;-39
2023/03/29 12:27:22;;;;;;;2.10;0.93;;;;;;;;;;5066150;28;20212;-34
2023/03/29 12:30:04;;;;;;;1.30;1.10;;;;;;;;;;5065262;28;20201;-37
2023/03/29 12:32:41;;;;;;;1.20;0.87;;;;;;;;;;5065627;28;20316;-32
2023/03/29 12:35:20;;;;;;;1.77;0.90;;;;;;;;;;5070244;28;20208;-33
2023/03/29 12:37:52;;;;;;;1.20;1.10;;;;;;;;;;5065639;28;20744;-40
2023/03/29 12:40:20;;;;;;;1.07;0.97;;;;;;;;;;5065919;28;20205;-34
2023/03/29 12:42:48;;;;;;;2.10;0.87;;;;;;;;;;5069655;28;20225;-36
2023/03/29 12:45:19;;;;;;;2.40;0.97;;;;;;;;;;5062019;28;20202;-38
2023/03/29 12:47:49;;;;;;;2.00;1.00;;;;;;;;;;5069882;28;20416;-34
2023/03/29 12:50:23;;;;;;;0.97;0.77;;;;;;;;;;5069915;28;20224;-35
2023/03/29 12:52:50;;;;;;;1.13;0.90;;;;;;;;;;5070009;28;20229;-32
2023/03/29 12:55:22;;;;;;;0.70;0.70;;;;;;;;;;5065526;28;20225;-34
2023/03/29 12:57:58;;;;;;;1.47;0.80;;;;;;;;;;5066313;28;20209;-35
2023/03/29 13:00:27;;;;;;;1.70;0.87;;;;;;;;;;5059529;28;20212;-34
2023/03/29 13:03:03;;;;;;;2.03;0.80;;;;;;;;;;5069187;28;20307;-29
2023/03/29 13:05:32;;;;;;;1.27;0.80;;;;;;;;;;5069846;28;20279;-38
2023/03/29 13:07:59;;;;;;;1.77;0.80;;;;;;;;;;5070718;28;20208;-39
2023/03/29 13:10:40;;;;;;;3.27;0.83;;;;;;;;;;5063099;28;20206;-37
2023/03/29 13:13:11;;;;;;;2.57;1.00;;;;;;;;;;5060108;28;20220;-32
2023/03/29 13:15:39;;;;;;;2.00;0.80;;;;;;;;;;5064858;28;20217;-33
2023/03/29 13:18:17;;;;;;;2.63;0.90;;;;;;;;;;5069471;28;20296;-37
2023/03/29 13:20:46;;;;;;;1.17;0.87;;;;;;;;;;5070350;28;20213;-39
2023/03/29 13:23:30;;;;;;;1.57;0.90;;;;;;;;;;5064453;28;20229;-38
2023/03/29 13:26:05;;;;;;;4.73;1.77;;;;;;;;;;5063473;28;20236;-37
2023/03/29 13:28:41;;;;;;;6.80;1.00;;;;;;;;;;5070473;28;20197;-37
2023/03/29 13:31:17;;;;;;;2.50;0.80;;;;;;;;;;5061114;28;20216;-34
2023/03/29 13:33:51;;;;;;;0.70;0.60;;;;;;;;;;5070178;28;20225;-37
2023/03/29 13:36:24;;;;;;;1.27;0.93;;;;;;;;;;5070163;28;20200;-28
2023/03/29 13:38:54;;;;;;;0.70;0.70;;;;;;;;;;5067508;28;20205;-32
2023/03/29 13:41:32;;;;;;;2.80;1.00;;;;;;;;;;5069240;28;20193;-28
2023/03/29 13:44:00;;;;;;;0.87;0.77;;;;;;;;;;5069435;28;20217;-34
2023/03/29 13:46:42;;;;;;;1.53;1.10;;;;;;;;;;5064938;28;20208;-36
2023/03/29 13:49:16;;;;;;;1.10;0.70;;;;;;;;;;5069513;28;20198;-37
2023/03/29 13:51:48;;;;;;;1.67;0.70;;;;;;;;;;5069539;28;20212;-34
2023/03/29 13:54:21;;;;;;;1.87;1.13;;;;;;;;;;5067090;28;20229;-36
2023/03/29 13:57:04;;;;;;;1.10;1.00;;;;;;;;;;5068704;28;20197;-32
2023/03/29 14:00:01;;;;;;;0.93;0.63;;;;;;;;;;5065200;28;20236;-32
2023/03/29 14:02:33;;;;;;;1.70;0.77;;;;;;;;;;5031798;28;20209;-39
2023/03/29 14:05:03;;;;;;;0.83;0.83;;;;;;;;;;5069540;28;20182;-37
2023/03/29 14:07:33;;;;;;;3.63;1.10;;;;;;;;;;5067373;28;20205;-32
2023/03/29 14:10:07;;;;;;;0.60;0.60;;;;;;;;;;5052950;28;20220;-35
2023/03/29 14:12:37;;;;;;;1.20;0.97;;;;;;;;;;5067287;28;20278;-37
2023/03/29 14:15:06;;;;;;;1.77;1.10;;;;;;;;;;5062341;28;20234;-33
2023/03/29 14:17:34;;;;;;;1.13;0.80;;;;;;;;;;5068383;28;20212;-32
2023/03/29 14:20:07;;;;;;;2.33;1.20;;;;;;;;;;5069550;28;20201;-32
2023/03/29 14:22:35;;;;;;;1.43;1.17;;;;;;;;;;5063462;28;20648;-36
2023/03/29 14:25:03;;;;;;;2.10;0.90;;;;;;;;;;5067813;28;20205;-32
2023/03/29 14:27:31;;;;;;;4.60;1.13;;;;;;;;;;5068129;28;20198;-40
2023/03/29 14:29:59;;;;;;;2.17;0.77;;;;;;;;;;5066396;28;20205;-35
2023/03/29 14:32:29;;;;;;;2.20;0.80;;;;;;;;;;5070140;28;20201;-38
2023/03/29 14:34:57;;;;;;;2.43;0.87;;;;;;;;;;5066393;28;20213;-36
2023/03/29 14:37:27;;;;;;;2.13;1.00;;;;;;;;;;5068803;28;20205;-37
2023/03/29 14:39:55;;;;;;;3.27;1.10;;;;;;;;;;5065416;28;20201;-36
2023/03/29 14:42:25;;;;;;;3.40;0.93;;;;;;;;;;5065083;28;20209;-32
2023/03/29 14:44:57;;;;;;;2.60;0.97;;;;;;;;;;5061125;28;20270;-36
2023/03/29 14:47:26;;;;;;;4.00;1.20;;;;;;;;;;5068815;28;20201;-33
2023/03/29 14:49:55;;;;;;;1.97;1.10;;;;;;;;;;5072654;28;20205;-36
2023/03/29 14:52:23;;;;;;;0.90;0.90;;;;;;;;;;5072106;28;20197;-36
2023/03/29 14:54:55;;;;;;;1.20;1.10;;;;;;;;;;5059348;28;20221;-39
2023/03/29 14:57:23;;;;;;;2.33;1.10;;;;;;;;;;5069154;28;20198;-35
2023/03/29 14:59:54;;;;;;;2.43;0.90;;;;;;;;;;5054348;28;20204;-39